Time;durP1;ratioP1;P1;durP2;ratioP2;P2;SDS_P1;SDS_P2;PMS_P1;PMS_P2;Temp;Humidity;BMP_temperature;BMP_pressure;BME280_temperature;BME280_humidity;BME280_pressure;Samples;Min_cycle;Max_cycle;Signal;HPM_P1;HPM_P2
2020/12/09 06:01:28;;;;;;;52.97;24.00;;;4.50;97.30;;;;;;5667501;23;20260;-71
2020/12/09 06:03:55;;;;;;;50.60;24.10;;;4.50;97.30;;;;;;4933546;29;20463;-74
2020/12/09 06:06:30;;;;;;;51.77;23.30;;;4.50;97.30;;;;;;4934134;29;20200;-74
2020/12/09 06:08:57;;;;;;;52.67;22.83;;;4.50;97.30;;;;;;4935465;29;20423;-71
2020/12/09 06:11:24;;;;;;;56.40;23.70;;;4.50;97.30;;;;;;4925470;29;20480;-70
2020/12/09 06:13:50;;;;;;;51.80;23.37;;;4.50;97.30;;;;;;4915784;29;20856;-71
2020/12/09 06:16:18;;;;;;;60.00;25.10;;;4.50;97.30;;;;;;4912712;29;20431;-71
2020/12/09 06:18:46;;;;;;;57.23;23.93;;;4.50;97.30;;;;;;4915095;29;20432;-71
2020/12/09 06:21:12;;;;;;;47.67;21.90;;;4.50;97.30;;;;;;4914094;29;20459;-70
2020/12/09 06:23:38;;;;;;;51.63;22.70;;;4.50;97.30;;;;;;4915327;29;20436;-71
2020/12/09 06:26:05;;;;;;;50.67;21.93;;;4.50;97.30;;;;;;4915147;29;20922;-71
2020/12/09 06:28:33;;;;;;;56.13;23.37;;;4.50;97.30;;;;;;4915833;29;20310;-71
2020/12/09 06:31:18;;;;;;;50.77;23.30;;;4.50;97.30;;;;;;4915231;29;20818;-71
2020/12/09 06:33:54;;;;;;;78.70;29.23;;;4.60;97.30;;;;;;4915329;29;20457;-70
2020/12/09 06:36:23;;;;;;;65.47;28.83;;;4.60;97.30;;;;;;4915246;29;20433;-70
2020/12/09 06:39:16;;;;;;;69.87;32.97;;;4.60;97.30;;;;;;4915435;29;20431;-70
2020/12/09 06:42:06;;;;;;;77.37;31.13;;;4.50;97.30;;;;;;4914867;29;20449;-71
2020/12/09 06:44:32;;;;;;;66.87;28.77;;;4.60;97.30;;;;;;4914826;29;20871;-73
2020/12/09 06:46:59;;;;;;;59.63;25.43;;;4.60;97.30;;;;;;4915185;29;20432;-71
2020/12/09 06:49:39;;;;;;;53.07;22.63;;;4.60;97.30;;;;;;4915046;29;20955;-73
2020/12/09 06:52:11;;;;;;;57.70;24.07;;;4.60;97.30;;;;;;4896134;29;20456;-71
2020/12/09 06:54:44;;;;;;;52.33;23.77;;;4.60;97.30;;;;;;4896143;29;20421;-72
2020/12/09 06:57:28;;;;;;;51.70;21.80;;;4.60;97.30;;;;;;4897709;29;20785;-71
2020/12/09 07:00:15;;;;;;;48.73;21.43;;;4.60;97.30;;;;;;4896426;29;20464;-71
2020/12/09 07:02:42;;;;;;;56.30;23.33;;;4.60;97.30;;;;;;4896423;29;20441;-71
2020/12/09 07:05:09;;;;;;;55.83;23.37;;;4.60;97.30;;;;;;4896147;29;20497;-71
2020/12/09 07:07:43;;;;;;;48.90;22.40;;;4.60;97.30;;;;;;4896375;29;20783;-71
2020/12/09 07:10:20;;;;;;;50.67;21.93;;;4.60;97.30;;;;;;4896328;29;20456;-71
2020/12/09 07:12:47;;;;;;;61.53;23.53;;;4.60;97.30;;;;;;4897522;29;20763;-72
2020/12/09 07:15:13;;;;;;;48.60;21.90;;;4.60;97.30;;;;;;4897271;29;20432;-71
2020/12/09 07:17:39;;;;;;;54.30;23.37;;;4.50;97.30;;;;;;4896065;29;20465;-71
2020/12/09 07:20:05;;;;;;;53.50;24.47;;;4.60;97.30;;;;;;4897643;29;20441;-71
2020/12/09 07:22:31;;;;;;;57.50;24.93;;;4.60;97.30;;;;;;4896106;29;20267;-71
2020/12/09 07:24:57;;;;;;;50.57;22.57;;;4.60;97.30;;;;;;4896011;29;21018;-72
2020/12/09 07:27:25;;;;;;;51.77;23.63;;;4.60;97.30;;;;;;4895953;29;20189;-71
2020/12/09 07:30:04;;;;;;;50.10;22.17;;;4.60;97.30;;;;;;4898131;29;20184;-71
2020/12/09 07:32:30;;;;;;;58.87;23.77;;;4.60;97.30;;;;;;4900629;29;20433;-71
2020/12/09 07:34:57;;;;;;;58.27;23.17;;;4.60;97.30;;;;;;4899216;29;20485;-71
2020/12/09 07:37:29;;;;;;;52.50;23.47;;;4.60;97.30;;;;;;4899536;29;20193;-71
2020/12/09 07:39:57;;;;;;;58.93;22.67;;;4.70;97.30;;;;;;4899389;29;20526;-71
2020/12/09 07:42:23;;;;;;;52.63;22.30;;;4.70;97.30;;;;;;4899077;29;20792;-71
2020/12/09 07:44:51;;;;;;;53.63;22.43;;;4.70;97.30;;;;;;4899031;29;20548;-71
2020/12/09 07:47:28;;;;;;;53.17;22.80;;;4.70;97.30;;;;;;4899044;29;20803;-71
2020/12/09 07:50:03;;;;;;;47.90;23.00;;;4.70;97.30;;;;;;4899112;29;20429;-71
2020/12/09 07:52:30;;;;;;;51.30;21.53;;;4.70;97.30;;;;;;4900088;29;20433;-71
2020/12/09 07:54:58;;;;;;;52.13;23.23;;;4.70;97.30;;;;;;4899027;29;20497;-71
2020/12/09 07:57:35;;;;;;;50.23;21.97;;;4.70;97.30;;;;;;4900349;29;20814;-71
2020/12/09 08:00:07;;;;;;;56.67;24.93;;;4.70;97.30;;;;;;4900341;29;20420;-72
2020/12/09 08:02:38;;;;;;;55.17;21.67;;;4.70;97.30;;;;;;4898706;29;20465;-71
2020/12/09 08:05:24;;;;;;;51.37;22.60;;;4.70;97.30;;;;;;4898800;29;20473;-71
2020/12/09 08:07:52;;;;;;;49.93;21.57;;;4.70;97.30;;;;;;4898931;29;20924;-72
2020/12/09 08:10:26;;;;;;;62.00;24.50;;;4.70;97.30;;;;;;4898872;29;20425;-71
2020/12/09 08:13:04;;;;;;;51.93;22.10;;;4.70;97.30;;;;;;4898979;29;20429;-71
2020/12/09 08:15:29;;;;;;;54.97;23.07;;;4.70;97.30;;;;;;4898873;29;20481;-71
2020/12/09 08:17:55;;;;;;;53.90;23.27;;;4.70;97.30;;;;;;4898669;29;20433;-71
2020/12/09 08:20:21;;;;;;;55.57;22.50;;;4.80;97.30;;;;;;4899965;29;20209;-71
2020/12/09 08:22:58;;;;;;;51.87;22.83;;;4.80;97.30;;;;;;4898480;29;20189;-71
2020/12/09 08:25:43;;;;;;;54.07;21.83;;;4.80;97.30;;;;;;4899587;29;20218;-72
2020/12/09 08:28:08;;;;;;;51.30;22.20;;;4.80;97.30;;;;;;4898539;29;20473;-71
2020/12/09 08:30:34;;;;;;;58.03;26.87;;;4.80;97.30;;;;;;4899625;29;20806;-72
2020/12/09 08:33:07;;;;;;;54.73;25.10;;;4.80;97.30;;;;;;4899504;29;20723;-72
2020/12/09 08:35:44;;;;;;;58.03;24.97;;;4.80;97.30;;;;;;4905477;29;20859;-71
2020/12/09 08:38:19;;;;;;;55.67;24.27;;;4.80;97.30;;;;;;4916924;29;20428;-72
2020/12/09 08:40:51;;;;;;;56.90;25.67;;;4.80;97.30;;;;;;4916967;29;20492;-71
2020/12/09 08:43:18;;;;;;;53.73;22.77;;;4.90;97.30;;;;;;4916507;29;20429;-72
2020/12/09 08:45:45;;;;;;;57.33;25.10;;;4.90;97.30;;;;;;4917083;29;20472;-71
2020/12/09 08:48:11;;;;;;;53.83;23.13;;;4.90;97.30;;;;;;4916767;29;20433;-71
2020/12/09 08:50:36;;;;;;;57.70;26.10;;;4.90;97.30;;;;;;4916735;29;20505;-71
2020/12/09 08:53:02;;;;;;;55.33;25.00;;;4.90;97.30;;;;;;4916416;29;20467;-72
2020/12/09 08:55:28;;;;;;;57.70;23.63;;;5.00;97.30;;;;;;4918070;29;20556;-70
2020/12/09 08:57:53;;;;;;;53.30;25.00;;;5.00;97.30;;;;;;4916787;29;20188;-73
2020/12/09 09:00:19;;;;;;;50.47;23.73;;;5.00;97.30;;;;;;4916733;29;20188;-71
2020/12/09 09:02:46;;;;;;;54.27;23.00;;;5.00;97.30;;;;;;4916623;29;20204;-71
2020/12/09 09:05:12;;;;;;;56.60;23.87;;;5.10;97.30;;;;;;4916362;29;20261;-71
2020/12/09 09:07:37;;;;;;;50.20;23.57;;;5.00;97.30;;;;;;4917871;29;20412;-70
2020/12/09 09:10:03;;;;;;;61.13;25.80;;;5.10;97.30;;;;;;4916690;29;20283;-70
2020/12/09 09:12:29;;;;;;;57.67;26.00;;;5.10;97.30;;;;;;4916448;29;20203;-71
2020/12/09 09:14:55;;;;;;;49.37;22.37;;;5.10;97.30;;;;;;4917631;29;20236;-70
2020/12/09 09:17:20;;;;;;;58.40;25.07;;;5.10;97.30;;;;;;4916527;29;20207;-73
2020/12/09 09:19:46;;;;;;;58.37;25.23;;;5.10;97.30;;;;;;4917558;29;20420;-71
2020/12/09 09:22:12;;;;;;;54.93;23.47;;;5.10;97.30;;;;;;4916209;29;20572;-71
2020/12/09 09:24:38;;;;;;;53.90;24.93;;;5.10;97.30;;;;;;4916234;29;20646;-70
2020/12/09 09:27:11;;;;;;;58.37;25.50;;;5.10;97.30;;;;;;4916104;29;20472;-70
2020/12/09 09:29:38;;;;;;;56.93;25.53;;;5.10;97.30;;;;;;4916409;29;20951;-71
2020/12/09 09:32:04;;;;;;;52.67;24.23;;;5.10;97.30;;;;;;4916139;29;20527;-71
2020/12/09 09:34:31;;;;;;;55.70;25.30;;;5.10;97.30;;;;;;4917017;29;20452;-71
2020/12/09 09:36:57;;;;;;;61.07;23.53;;;5.20;97.30;;;;;;4916204;29;21077;-71
2020/12/09 09:39:23;;;;;;;55.33;23.07;;;5.20;97.30;;;;;;4915984;29;20455;-70
2020/12/09 09:41:48;;;;;;;58.70;24.60;;;5.20;97.30;;;;;;4917148;29;20793;-71
2020/12/09 09:44:14;;;;;;;48.60;22.83;;;5.20;97.30;;;;;;4915716;29;20204;-71
2020/12/09 09:46:40;;;;;;;61.57;24.03;;;5.30;97.30;;;;;;4916109;29;20185;-71
2020/12/09 09:49:05;;;;;;;48.60;23.27;;;5.30;97.30;;;;;;4917079;29;20192;-70
2020/12/09 09:51:31;;;;;;;48.03;21.73;;;5.40;97.30;;;;;;4915946;29;20293;-71
2020/12/09 09:53:57;;;;;;;53.80;23.53;;;5.40;97.30;;;;;;4914987;29;20180;-71
2020/12/09 09:56:22;;;;;;;52.50;23.47;;;5.50;97.30;;;;;;4915902;29;20641;-71
2020/12/09 09:58:48;;;;;;;56.53;24.23;;;5.50;97.30;;;;;;4915547;29;20184;-71
2020/12/09 10:01:15;;;;;;;58.97;24.13;;;5.50;97.30;;;;;;4915699;29;20270;-71
2020/12/09 10:03:41;;;;;;;54.80;24.90;;;5.50;97.30;;;;;;4915403;29;20193;-71
2020/12/09 10:06:07;;;;;;;57.10;24.37;;;5.50;97.30;;;;;;4915662;29;20424;-71
2020/12/09 10:08:32;;;;;;;46.57;22.10;;;5.50;97.30;;;;;;4916907;29;20419;-71
2020/12/09 10:11:02;;;;;;;55.83;22.90;;;5.50;97.30;;;;;;4916984;29;20433;-71
2020/12/09 10:13:28;;;;;;;49.83;23.37;;;5.50;97.30;;;;;;4916845;29;20179;-71
2020/12/09 10:15:54;;;;;;;50.67;22.87;;;5.50;97.30;;;;;;4915532;29;20507;-71
2020/12/09 10:18:20;;;;;;;52.80;23.10;;;5.50;97.30;;;;;;4915649;29;20184;-71
2020/12/09 10:20:45;;;;;;;54.37;23.20;;;5.50;97.30;;;;;;4915621;29;20451;-71
2020/12/09 10:23:11;;;;;;;57.40;24.63;;;5.50;97.30;;;;;;4915426;29;20188;-71
2020/12/09 10:25:37;;;;;;;48.63;23.60;;;5.50;97.30;;;;;;4915639;29;20278;-71
2020/12/09 10:28:02;;;;;;;55.13;25.07;;;5.50;97.30;;;;;;4915420;29;20293;-71
2020/12/09 10:30:28;;;;;;;56.40;25.43;;;5.50;97.30;;;;;;4915051;29;20188;-70
2020/12/09 10:32:54;;;;;;;54.63;24.00;;;5.50;97.30;;;;;;4915409;29;20207;-71
2020/12/09 10:35:19;;;;;;;50.40;22.53;;;5.50;97.30;;;;;;4915053;29;20272;-71
2020/12/09 10:37:45;;;;;;;51.63;21.90;;;5.50;97.30;;;;;;4915576;29;20591;-71
2020/12/09 10:40:11;;;;;;;51.87;23.67;;;5.50;97.30;;;;;;4916675;29;20177;-71
2020/12/09 10:42:37;;;;;;;46.07;22.60;;;5.50;97.30;;;;;;4915089;29;20260;-71
2020/12/09 10:45:03;;;;;;;54.70;25.30;;;5.50;97.30;;;;;;4916110;29;20387;-71
2020/12/09 10:47:30;;;;;;;49.47;23.57;;;5.50;97.30;;;;;;4915258;29;20284;-72
2020/12/09 10:49:56;;;;;;;52.30;24.33;;;5.50;97.30;;;;;;4915194;29;20428;-72
2020/12/09 10:52:22;;;;;;;54.23;24.70;;;5.60;97.30;;;;;;4915023;29;20437;-72
2020/12/09 10:54:47;;;;;;;54.70;24.97;;;5.60;97.30;;;;;;4916332;29;20168;-71
2020/12/09 10:57:13;;;;;;;56.40;25.17;;;5.60;97.30;;;;;;4916458;29;20417;-71
2020/12/09 10:59:39;;;;;;;53.90;25.27;;;5.60;97.30;;;;;;4914992;29;20192;-72
2020/12/09 11:02:05;;;;;;;51.67;23.33;;;5.70;97.30;;;;;;4914754;29;20476;-71
2020/12/09 11:04:31;;;;;;;49.67;22.03;;;5.70;97.30;;;;;;4917789;29;20470;-71
2020/12/09 11:06:57;;;;;;;55.83;23.30;;;5.70;97.30;;;;;;4920080;29;20546;-71
2020/12/09 11:09:23;;;;;;;54.30;22.43;;;5.70;97.30;;;;;;4918936;29;20434;-71
2020/12/09 11:11:48;;;;;;;48.70;25.00;;;5.70;97.30;;;;;;4918681;29;20256;-72
2020/12/09 11:14:15;;;;;;;56.50;23.60;;;5.70;97.30;;;;;;4918271;29;20185;-71
2020/12/09 11:16:42;;;;;;;52.73;23.17;;;5.80;97.30;;;;;;4920042;29;20193;-71
2020/12/09 11:19:08;;;;;;;53.73;21.87;;;5.80;97.30;;;;;;4918608;29;20420;-71
2020/12/09 11:21:33;;;;;;;60.57;25.20;;;5.80;97.30;;;;;;4918381;29;20824;-71
2020/12/09 11:23:59;;;;;;;52.83;24.53;;;5.80;97.30;;;;;;4918297;29;20598;-71
2020/12/09 11:26:27;;;;;;;56.60;22.77;;;5.80;97.30;;;;;;4918419;29;20729;-71
2020/12/09 11:28:53;;;;;;;51.07;22.57;;;5.80;97.30;;;;;;4918304;29;20432;-72
2020/12/09 11:31:24;;;;;;;49.37;22.90;;;5.80;97.30;;;;;;4918318;29;20440;-71
2020/12/09 11:33:51;;;;;;;55.80;24.40;;;5.80;97.30;;;;;;4919184;29;20419;-71
2020/12/09 11:36:25;;;;;;;51.97;22.30;;;5.80;97.30;;;;;;4919279;29;20528;-71
2020/12/09 11:38:55;;;;;;;47.10;21.40;;;5.80;97.30;;;;;;4919460;29;20417;-71
2020/12/09 11:41:25;;;;;;;47.97;24.10;;;5.80;97.30;;;;;;4918048;29;21080;-71
2020/12/09 11:43:51;;;;;;;61.27;26.40;;;5.80;97.30;;;;;;4917696;29;20421;-71
2020/12/09 11:46:17;;;;;;;55.43;26.20;;;5.90;97.30;;;;;;4919144;29;20470;-71
2020/12/09 11:48:43;;;;;;;55.90;23.90;;;5.90;97.30;;;;;;4918032;29;20568;-71
2020/12/09 11:51:13;;;;;;;54.80;24.20;;;5.90;97.30;;;;;;4917878;29;20200;-71
2020/12/09 11:53:38;;;;;;;54.50;25.20;;;5.90;97.30;;;;;;4919010;29;20417;-71
2020/12/09 11:56:04;;;;;;;53.73;25.20;;;5.90;97.30;;;;;;4919257;29;20417;-71
2020/12/09 11:58:30;;;;;;;52.93;23.50;;;6.00;97.30;;;;;;4919423;29;20188;-70
2020/12/09 12:00:56;;;;;;;57.03;25.20;;;6.00;97.30;;;;;;4917584;29;20232;-71
2020/12/09 12:03:21;;;;;;;52.90;22.90;;;6.00;97.30;;;;;;4918090;29;20635;-71
2020/12/09 12:05:52;;;;;;;49.90;22.40;;;6.10;97.30;;;;;;4917569;29;20284;-72
2020/12/09 12:08:18;;;;;;;51.30;25.30;;;6.10;97.30;;;;;;4918138;29;20538;-71
2020/12/09 12:10:43;;;;;;;51.97;24.97;;;6.20;97.30;;;;;;4917877;29;20484;-72
2020/12/09 12:13:09;;;;;;;52.73;24.63;;;6.20;97.30;;;;;;4918905;29;20412;-71
2020/12/09 12:15:35;;;;;;;56.77;25.10;;;6.20;97.30;;;;;;4917076;29;20643;-72
2020/12/09 12:18:00;;;;;;;51.37;24.20;;;6.20;97.30;;;;;;4918917;29;20177;-72
2020/12/09 12:20:26;;;;;;;51.40;23.60;;;6.20;97.30;;;;;;4918577;29;20239;-71
2020/12/09 12:22:52;;;;;;;54.90;24.00;;;6.20;97.30;;;;;;4917505;29;20185;-72
2020/12/09 12:25:17;;;;;;;56.07;25.23;;;6.20;97.30;;;;;;4917022;29;20212;-71
2020/12/09 12:27:44;;;;;;;55.07;24.83;;;6.20;97.30;;;;;;4918709;29;20656;-72
2020/12/09 12:30:11;;;;;;;53.73;24.43;;;6.30;97.30;;;;;;4917322;29;20568;-71
2020/12/09 12:32:39;;;;;;;59.00;25.67;;;6.40;97.30;;;;;;4918247;29;20947;-71
2020/12/09 12:35:05;;;;;;;50.77;24.63;;;6.40;97.30;;;;;;4916962;29;20488;-71
2020/12/09 12:37:34;;;;;;;56.87;25.13;;;6.40;97.30;;;;;;4918169;29;20420;-71
2020/12/09 12:40:01;;;;;;;57.17;25.53;;;6.40;97.30;;;;;;4916683;29;20500;-71
2020/12/09 12:42:27;;;;;;;73.50;24.50;;;6.40;97.30;;;;;;4916496;29;20456;-72
2020/12/09 12:44:53;;;;;;;54.17;23.40;;;6.40;97.30;;;;;;4916849;29;20475;-72
2020/12/09 12:47:18;;;;;;;55.27;25.20;;;6.40;97.30;;;;;;4918276;29;20236;-72
2020/12/09 12:49:44;;;;;;;53.47;22.50;;;6.40;97.30;;;;;;4918562;29;20201;-72
2020/12/09 12:52:10;;;;;;;47.73;22.53;;;6.30;97.30;;;;;;4917025;29;20693;-72
2020/12/09 12:54:36;;;;;;;45.43;22.63;;;6.40;97.30;;;;;;4916953;29;20184;-71
2020/12/09 12:57:02;;;;;;;47.60;22.90;;;6.30;97.30;;;;;;4916563;29;20185;-72
2020/12/09 12:59:28;;;;;;;57.83;25.67;;;6.30;97.30;;;;;;4918052;29;20431;-71
2020/12/09 13:01:59;;;;;;;45.30;21.13;;;6.30;97.30;;;;;;4916084;29;20484;-72
2020/12/09 13:04:26;;;;;;;50.47;22.60;;;6.30;97.30;;;;;;4916631;29;20204;-71
2020/12/09 13:06:51;;;;;;;49.47;21.60;;;6.30;97.30;;;;;;4916440;29;20436;-71
2020/12/09 13:09:17;;;;;;;48.40;24.00;;;6.30;97.30;;;;;;4916621;29;20429;-71
2020/12/09 13:11:43;;;;;;;52.30;24.57;;;6.30;97.30;;;;;;4916100;29;20212;-71
2020/12/09 13:14:09;;;;;;;49.40;23.77;;;6.30;97.30;;;;;;4905984;29;20325;-71
2020/12/09 13:16:34;;;;;;;52.13;24.37;;;6.30;97.30;;;;;;4909266;29;20619;-72
2020/12/09 13:19:00;;;;;;;55.87;23.87;;;6.30;97.30;;;;;;4904737;29;20421;-72
2020/12/09 13:21:26;;;;;;;55.60;23.90;;;6.30;97.30;;;;;;4899011;29;20205;-72
2020/12/09 13:23:54;;;;;;;49.97;24.10;;;6.30;97.30;;;;;;4900468;29;20181;-71
2020/12/09 13:26:20;;;;;;;53.33;23.93;;;6.30;97.30;;;;;;4913130;29;20185;-71
2020/12/09 13:28:46;;;;;;;58.37;27.77;;;6.20;97.30;;;;;;4902492;29;20843;-72
2020/12/09 13:31:12;;;;;;;90.20;48.50;;;6.20;97.30;;;;;;4897240;29;20810;-71
2020/12/09 13:33:37;;;;;;;56.37;28.47;;;6.20;97.30;;;;;;4911990;29;20185;-71
2020/12/09 13:36:03;;;;;;;57.40;26.50;;;6.20;97.30;;;;;;4912990;29;20197;-71
2020/12/09 13:38:29;;;;;;;55.00;25.47;;;6.20;97.30;;;;;;4916110;29;20191;-72
2020/12/09 13:40:54;;;;;;;53.93;25.27;;;6.10;97.30;;;;;;4909939;29;20209;-71
2020/12/09 13:43:20;;;;;;;59.53;26.27;;;6.10;97.30;;;;;;4914141;29;20185;-71
2020/12/09 13:45:46;;;;;;;56.63;23.10;;;6.10;97.30;;;;;;4898049;29;20269;-71
2020/12/09 13:48:12;;;;;;;47.10;21.83;;;6.10;97.30;;;;;;4897497;29;20669;-72
2020/12/09 13:50:43;;;;;;;49.40;23.50;;;6.10;97.30;;;;;;4910103;29;20740;-72
2020/12/09 13:53:10;;;;;;;52.97;23.73;;;6.10;97.30;;;;;;4899032;29;20904;-71
2020/12/09 13:55:35;;;;;;;50.70;23.73;;;6.10;97.30;;;;;;4896629;29;20487;-72
2020/12/09 13:58:01;;;;;;;49.10;23.30;;;6.10;97.30;;;;;;4897603;29;20177;-72
2020/12/09 14:00:26;;;;;;;53.23;23.37;;;6.10;97.30;;;;;;4896895;29;20531;-71
2020/12/09 14:02:53;;;;;;;53.50;24.80;;;6.10;97.30;;;;;;4896751;29;20686;-72
2020/12/09 14:05:19;;;;;;;53.07;24.00;;;6.10;97.30;;;;;;4897620;29;20221;-71
2020/12/09 14:07:45;;;;;;;47.73;24.37;;;6.10;97.30;;;;;;4898023;29;20442;-71
2020/12/09 14:10:10;;;;;;;59.87;24.97;;;6.10;97.30;;;;;;4915535;29;20173;-71
2020/12/09 14:12:36;;;;;;;43.97;21.97;;;6.10;97.30;;;;;;4915103;29;20531;-72
2020/12/09 14:15:03;;;;;;;54.80;24.30;;;6.10;97.30;;;;;;4916667;29;20273;-72
2020/12/09 14:17:28;;;;;;;54.73;24.60;;;6.10;97.30;;;;;;4915494;29;20230;-71
2020/12/09 14:19:55;;;;;;;54.70;25.90;;;6.10;97.30;;;;;;4915294;29;20946;-71
2020/12/09 14:22:21;;;;;;;50.87;22.63;;;6.10;97.30;;;;;;4915025;29;20227;-72
2020/12/09 14:24:47;;;;;;;51.03;24.03;;;6.10;97.30;;;;;;4915269;29;20978;-71
2020/12/09 14:27:13;;;;;;;52.40;24.23;;;6.00;97.30;;;;;;4915410;29;20195;-72
2020/12/09 14:29:39;;;;;;;51.93;22.93;;;6.00;97.30;;;;;;4915394;29;20420;-72
2020/12/09 14:32:05;;;;;;;45.53;23.47;;;6.00;97.30;;;;;;4914986;29;20674;-71
2020/12/09 14:34:31;;;;;;;49.47;23.30;;;6.00;97.30;;;;;;4915176;29;20436;-72
2020/12/09 14:36:56;;;;;;;57.50;25.07;;;6.00;97.30;;;;;;4915266;29;20235;-71
2020/12/09 14:39:23;;;;;;;45.33;22.00;;;6.00;97.30;;;;;;4918108;29;20244;-72
2020/12/09 14:41:50;;;;;;;49.83;24.50;;;6.00;97.30;;;;;;4916456;29;20201;-72
2020/12/09 14:44:18;;;;;;;45.27;22.67;;;6.00;97.30;;;;;;4915615;29;20452;-71
2020/12/09 14:46:44;;;;;;;54.33;25.40;;;5.90;97.30;;;;;;4918350;29;20423;-71
2020/12/09 14:49:11;;;;;;;53.27;25.33;;;5.90;97.30;;;;;;4918405;29;20432;-72
2020/12/09 14:51:41;;;;;;;54.87;24.07;;;5.90;97.30;;;;;;4918897;29;20804;-70
2020/12/09 14:54:08;;;;;;;58.27;26.67;;;5.90;97.30;;;;;;4919743;29;20417;-71
2020/12/09 14:56:34;;;;;;;56.03;25.70;;;5.90;97.30;;;;;;4919193;29;20420;-72
2020/12/09 14:59:02;;;;;;;52.50;25.83;;;5.90;97.30;;;;;;4919359;29;20934;-72
2020/12/09 15:01:27;;;;;;;44.87;24.60;;;5.90;97.30;;;;;;4919704;29;20448;-71
2020/12/09 15:03:53;;;;;;;52.20;22.50;;;5.90;97.30;;;;;;4919769;29;20468;-71
2020/12/09 15:06:19;;;;;;;50.73;26.60;;;5.90;97.30;;;;;;4918888;29;20176;-72
2020/12/09 15:08:45;;;;;;;50.57;24.20;;;5.90;97.30;;;;;;4919593;29;20432;-72
2020/12/09 15:11:17;;;;;;;52.50;25.10;;;5.90;97.30;;;;;;4920019;29;20432;-71
2020/12/09 15:13:44;;;;;;;48.43;24.37;;;5.90;97.30;;;;;;4918807;29;20547;-71
2020/12/09 15:16:10;;;;;;;51.73;22.40;;;5.80;97.30;;;;;;4918406;29;20424;-72
2020/12/09 15:18:35;;;;;;;55.30;26.30;;;5.90;97.30;;;;;;4919863;29;20417;-72
2020/12/09 15:21:01;;;;;;;46.93;23.30;;;5.80;97.30;;;;;;4918303;29;20295;-72
2020/12/09 15:23:26;;;;;;;54.03;23.40;;;5.80;97.30;;;;;;4919539;29;20676;-71
2020/12/09 15:25:52;;;;;;;60.70;24.20;;;5.80;97.30;;;;;;4915347;29;20227;-71
2020/12/09 15:28:18;;;;;;;55.23;25.33;;;5.80;97.30;;;;;;4913875;29;20192;-71
2020/12/09 15:30:44;;;;;;;55.63;25.20;;;5.80;97.30;;;;;;4914254;29;20448;-71
2020/12/09 15:33:11;;;;;;;59.90;25.03;;;5.80;97.30;;;;;;4916626;29;20189;-72
2020/12/09 15:35:36;;;;;;;59.73;25.07;;;5.70;97.30;;;;;;4917619;29;20184;-72
2020/12/09 15:38:03;;;;;;;59.80;25.40;;;5.70;97.30;;;;;;4918142;29;20432;-72
2020/12/09 15:40:29;;;;;;;58.27;25.60;;;5.70;97.30;;;;;;4917945;29;20425;-72
2020/12/09 15:42:55;;;;;;;62.37;28.47;;;5.70;97.30;;;;;;4917771;29;20424;-72
2020/12/09 15:45:21;;;;;;;64.90;27.50;;;5.70;97.30;;;;;;4918846;29;20196;-72
2020/12/09 15:47:48;;;;;;;57.03;25.10;;;5.70;97.30;;;;;;4917551;29;20456;-72
2020/12/09 15:50:17;;;;;;;58.90;23.90;;;5.70;97.30;;;;;;4916825;29;20435;-72
2020/12/09 15:52:43;;;;;;;55.97;24.27;;;5.70;97.30;;;;;;4917252;29;20520;-72
2020/12/09 15:55:12;;;;;;;54.60;27.30;;;5.60;97.30;;;;;;4917428;29;20440;-72
2020/12/09 15:57:38;;;;;;;54.17;24.33;;;5.60;97.30;;;;;;4916838;29;20440;-71
2020/12/09 16:00:06;;;;;;;53.93;24.20;;;5.70;97.30;;;;;;4917140;29;20448;-71
2020/12/09 16:02:32;;;;;;;57.03;26.07;;;5.60;97.30;;;;;;4914275;29;20492;-72
2020/12/09 16:04:57;;;;;;;58.70;24.87;;;5.60;97.30;;;;;;4917446;29;20499;-71
2020/12/09 16:07:24;;;;;;;56.07;25.90;;;5.60;97.30;;;;;;4915832;29;20272;-71
2020/12/09 16:09:50;;;;;;;49.27;23.77;;;5.60;97.30;;;;;;4917164;29;20181;-71
2020/12/09 16:12:20;;;;;;;53.70;25.50;;;5.60;97.30;;;;;;4916927;29;20440;-72
2020/12/09 16:14:46;;;;;;;53.07;23.27;;;5.60;97.30;;;;;;4916606;29;20804;-72
2020/12/09 16:17:14;;;;;;;56.40;24.73;;;5.60;97.30;;;;;;4918285;29;20441;-72
2020/12/09 16:19:41;;;;;;;50.77;24.73;;;5.60;97.30;;;;;;4917128;29;20431;-71
2020/12/09 16:22:07;;;;;;;58.07;25.27;;;5.60;97.30;;;;;;4917115;29;20475;-72
2020/12/09 16:24:32;;;;;;;56.70;22.93;;;5.60;97.30;;;;;;4915048;29;20488;-71
2020/12/09 16:26:59;;;;;;;57.93;25.50;;;5.60;97.30;;;;;;4923963;29;20408;-71
2020/12/09 16:29:25;;;;;;;63.60;25.80;;;5.60;97.30;;;;;;4926051;29;20177;-72
2020/12/09 16:31:51;;;;;;;58.53;24.83;;;5.60;97.30;;;;;;4925402;29;20446;-73
2020/12/09 16:34:18;;;;;;;57.47;25.00;;;5.60;97.30;;;;;;4926882;29;20408;-72
2020/12/09 16:36:47;;;;;;;59.43;24.77;;;5.60;97.30;;;;;;4922926;29;20432;-72
2020/12/09 16:39:18;;;;;;;57.23;23.60;;;5.50;97.30;;;;;;4926305;29;20756;-72
2020/12/09 16:41:48;;;;;;;63.23;26.30;;;5.50;97.30;;;;;;4923895;29;20463;-72
2020/12/09 16:44:18;;;;;;;60.20;26.13;;;5.50;97.30;;;;;;4920493;29;20943;-72
2020/12/09 16:46:48;;;;;;;58.83;26.13;;;5.40;97.30;;;;;;4927822;29;20424;-71
2020/12/09 16:49:20;;;;;;;55.07;25.00;;;5.40;97.30;;;;;;4933709;29;20538;-73
2020/12/09 16:51:46;;;;;;;57.93;24.60;;;5.40;97.30;;;;;;4909072;29;20439;-73
2020/12/09 16:54:15;;;;;;;59.80;26.03;;;5.40;97.30;;;;;;4926659;29;20428;-72
2020/12/09 16:56:41;;;;;;;54.67;23.97;;;5.40;97.30;;;;;;4924294;29;20168;-72
2020/12/09 16:59:10;;;;;;;56.53;24.07;;;5.40;97.30;;;;;;4921141;29;20420;-72
2020/12/09 17:01:39;;;;;;;60.60;26.73;;;5.40;97.30;;;;;;4918702;29;20740;-73
2020/12/09 17:04:24;;;;;;;72.93;32.30;;;5.40;97.30;;;;;;4919667;29;20985;-73
2020/12/09 17:07:03;;;;;;;64.63;28.67;;;5.40;97.30;;;;;;4898825;29;20453;-73
2020/12/09 17:09:31;;;;;;;68.50;30.53;;;5.40;97.30;;;;;;4917716;29;20413;-72
2020/12/09 17:12:00;;;;;;;60.83;25.60;;;5.40;97.30;;;;;;4916525;29;20204;-74
2020/12/09 17:14:27;;;;;;;53.40;25.70;;;5.40;97.30;;;;;;4912121;29;20428;-72
2020/12/09 17:16:58;;;;;;;63.03;24.17;;;5.40;97.30;;;;;;4916801;29;20520;-75
2020/12/09 17:19:25;;;;;;;57.13;24.07;;;5.40;97.30;;;;;;4917313;29;20436;-73
2020/12/09 17:21:56;;;;;;;54.57;25.27;;;5.40;97.30;;;;;;4916504;29;20460;-72
2020/12/09 17:24:23;;;;;;;49.17;23.37;;;5.40;97.30;;;;;;4897124;29;20465;-72
2020/12/09 17:26:49;;;;;;;58.53;24.17;;;5.40;97.30;;;;;;4897344;29;20425;-72
2020/12/09 17:29:16;;;;;;;56.97;24.00;;;5.30;97.30;;;;;;4897560;29;20794;-73
2020/12/09 17:31:42;;;;;;;46.70;22.30;;;5.30;97.30;;;;;;4897671;29;20448;-72
2020/12/09 17:34:09;;;;;;;53.43;23.53;;;5.30;97.30;;;;;;4897430;29;20418;-73
2020/12/09 17:36:35;;;;;;;58.63;26.43;;;5.30;97.30;;;;;;4897646;29;20429;-73
2020/12/09 17:39:01;;;;;;;60.30;29.13;;;5.30;97.30;;;;;;4897400;29;20421;-72
2020/12/09 17:41:26;;;;;;;57.50;26.00;;;5.30;97.30;;;;;;4897273;29;20337;-72
2020/12/09 17:43:52;;;;;;;57.10;24.90;;;5.30;97.30;;;;;;4897173;29;20177;-73
2020/12/09 17:46:18;;;;;;;61.60;25.70;;;5.30;97.30;;;;;;4897364;29;20268;-72
2020/12/09 17:48:43;;;;;;;56.90;26.50;;;5.30;97.30;;;;;;4897212;29;20249;-73
2020/12/09 17:51:09;;;;;;;52.20;23.57;;;5.30;97.30;;;;;;4897531;29;20268;-73
2020/12/09 17:53:35;;;;;;;56.67;24.80;;;5.30;97.30;;;;;;4896805;29;20185;-72
2020/12/09 17:56:02;;;;;;;49.93;24.53;;;5.30;97.30;;;;;;4897223;29;20181;-72
2020/12/09 17:58:28;;;;;;;51.50;24.10;;;5.30;97.30;;;;;;4897373;29;20657;-71
2020/12/09 18:00:54;;;;;;;54.70;26.60;;;5.30;97.30;;;;;;4898227;29;20951;-73
2020/12/09 18:03:20;;;;;;;67.37;25.90;;;5.20;97.30;;;;;;4898520;29;20484;-72
2020/12/09 18:05:47;;;;;;;60.43;25.57;;;5.20;97.30;;;;;;4896690;29;20205;-73
2020/12/09 18:08:16;;;;;;;56.93;24.93;;;5.20;97.30;;;;;;4897205;29;20188;-73
2020/12/09 18:10:42;;;;;;;61.47;27.20;;;5.20;97.30;;;;;;4898013;29;20438;-73
2020/12/09 18:13:08;;;;;;;67.20;26.63;;;5.20;97.30;;;;;;4907999;29;20424;-73
2020/12/09 18:15:34;;;;;;;70.50;26.03;;;5.10;97.30;;;;;;4915709;29;20428;-73
2020/12/09 18:17:59;;;;;;;63.57;26.67;;;5.10;97.30;;;;;;4916973;29;20788;-73
2020/12/09 18:20:25;;;;;;;65.80;27.03;;;5.00;97.30;;;;;;4917067;29;20572;-73
2020/12/09 18:22:51;;;;;;;66.93;28.87;;;5.00;97.30;;;;;;4915960;29;20299;-73
2020/12/09 18:25:17;;;;;;;66.63;27.87;;;5.00;97.30;;;;;;4916977;29;20196;-73
2020/12/09 18:27:43;;;;;;;69.87;27.80;;;5.00;97.30;;;;;;4915905;29;20432;-73
2020/12/09 18:30:09;;;;;;;66.10;29.17;;;5.00;97.30;;;;;;4915597;29;20593;-74
2020/12/09 18:32:36;;;;;;;73.33;29.40;;;5.00;97.30;;;;;;4915642;29;20200;-73
2020/12/09 18:35:02;;;;;;;69.80;28.50;;;5.00;97.30;;;;;;4915734;29;20435;-73
2020/12/09 18:37:28;;;;;;;80.27;30.63;;;4.90;97.30;;;;;;4917095;29;20425;-73